Time;durP1;ratioP1;P1;durP2;ratioP2;P2;SDS_P1;SDS_P2;PMS_P1;PMS_P2;Temp;Humidity;BMP_temperature;BMP_pressure;BME280_temperature;BME280_humidity;BME280_pressure;Samples;Min_cycle;Max_cycle;Signal;HPM_P1;HPM_P2
2024/04/05 00:01:31;;;;;;;1.95;0.70;;;15.10;99.90;;;;;;4997359;28;20026;-73
2024/04/05 00:03:58;;;;;;;0.82;0.60;;;15.10;99.90;;;;;;4996050;28;20034;-73
2024/04/05 00:06:24;;;;;;;0.98;0.50;;;15.10;99.90;;;;;;4996374;28;20457;-73
2024/04/05 00:08:50;;;;;;;2.78;0.80;;;15.00;99.90;;;;;;4994919;28;20042;-73
2024/04/05 00:11:17;;;;;;;2.22;0.50;;;15.00;99.90;;;;;;4996844;28;20365;-73
2024/04/05 00:13:44;;;;;;;2.28;0.65;;;14.90;99.90;;;;;;4996646;28;20500;-74
2024/04/05 00:16:11;;;;;;;1.40;0.80;;;14.90;99.90;;;;;;4996817;28;20030;-73
2024/04/05 00:18:37;;;;;;;2.15;0.60;;;14.90;99.90;;;;;;4997028;28;20049;-73
2024/04/05 00:21:05;;;;;;;3.17;0.55;;;14.90;99.90;;;;;;4996601;28;20026;-73
2024/04/05 00:23:31;;;;;;;0.90;0.50;;;14.80;99.90;;;;;;4995809;28;20030;-73
2024/04/05 00:26:02;;;;;;;1.40;0.60;;;14.80;99.90;;;;;;4996012;28;20045;-71
2024/04/05 00:28:29;;;;;;;2.00;0.68;;;14.80;99.90;;;;;;4995177;28;20053;-73
2024/04/05 00:30:55;;;;;;;1.08;0.60;;;14.70;99.90;;;;;;4996305;28;20019;-73
2024/04/05 00:33:22;;;;;;;1.13;0.80;;;14.70;99.90;;;;;;4995253;28;20034;-73
2024/04/05 00:35:50;;;;;;;1.63;0.60;;;14.70;99.90;;;;;;4996540;28;20026;-74
2024/04/05 00:38:17;;;;;;;6.43;0.60;;;14.60;99.90;;;;;;4996345;28;20042;-73
2024/04/05 00:40:43;;;;;;;1.95;0.60;;;14.60;99.90;;;;;;4996202;28;20022;-73
2024/04/05 00:43:09;;;;;;;0.77;0.63;;;14.50;99.90;;;;;;4995796;28;20041;-73
2024/04/05 00:45:36;;;;;;;1.35;0.85;;;14.50;99.90;;;;;;4996325;28;20027;-73
2024/04/05 00:48:02;;;;;;;2.35;0.90;;;14.50;99.90;;;;;;4996484;28;20050;-74
2024/04/05 00:50:30;;;;;;;1.50;0.75;;;14.40;99.90;;;;;;4995697;28;20038;-70
2024/04/05 00:53:01;;;;;;;1.70;0.85;;;14.40;99.90;;;;;;4995947;28;20469;-73
2024/04/05 00:55:29;;;;;;;2.33;0.77;;;14.40;99.90;;;;;;4995975;28;20041;-73
2024/04/05 00:58:00;;;;;;;0.90;0.65;;;14.30;99.90;;;;;;4995941;28;20485;-73
2024/04/05 01:00:28;;;;;;;1.33;0.70;;;14.30;99.90;;;;;;4996714;28;20041;-72
2024/04/05 01:02:55;;;;;;;3.03;0.82;;;14.30;99.90;;;;;;4996048;28;20027;-74
2024/04/05 01:05:21;;;;;;;1.75;0.80;;;14.20;99.90;;;;;;4995891;28;20050;-73
2024/04/05 01:07:52;;;;;;;2.20;1.15;;;14.20;99.90;;;;;;4995734;28;20045;-73
2024/04/05 01:10:20;;;;;;;2.60;0.75;;;14.20;99.90;;;;;;4996465;28;20045;-73
2024/04/05 01:13:06;;;;;;;1.85;1.10;;;14.20;99.90;;;;;;4995655;28;20394;-73
2024/04/05 01:15:33;;;;;;;1.88;1.00;;;14.20;99.90;;;;;;4995808;28;20057;-73
2024/04/05 01:18:03;;;;;;;2.35;1.48;;;14.10;99.90;;;;;;4995349;28;20046;-73
2024/04/05 01:20:34;;;;;;;1.52;1.08;;;14.10;99.90;;;;;;4995647;28;20038;-73
2024/04/05 01:23:02;;;;;;;1.95;1.10;;;14.10;99.90;;;;;;4995360;28;20500;-73
2024/04/05 01:25:29;;;;;;;3.70;1.25;;;14.10;99.90;;;;;;4995641;28;20026;-73
2024/04/05 01:27:56;;;;;;;2.67;1.25;;;14.00;99.90;;;;;;4995482;28;20031;-73
2024/04/05 01:30:26;;;;;;;1.90;1.10;;;14.00;99.90;;;;;;4995246;28;20027;-73
2024/04/05 01:32:53;;;;;;;1.48;0.90;;;14.00;99.90;;;;;;4994681;28;20037;-73
2024/04/05 01:35:20;;;;;;;2.13;0.90;;;14.00;99.90;;;;;;4994898;28;20514;-73
2024/04/05 01:37:46;;;;;;;1.27;0.98;;;14.00;99.90;;;;;;4995171;28;20034;-72
2024/04/05 01:40:12;;;;;;;1.70;1.08;;;14.00;99.90;;;;;;4995353;28;20026;-73
2024/04/05 01:42:39;;;;;;;1.40;0.90;;;13.90;99.90;;;;;;4995450;28;20042;-73
2024/04/05 01:45:05;;;;;;;2.92;0.90;;;13.90;99.90;;;;;;4994884;28;20049;-73
2024/04/05 01:47:31;;;;;;;1.58;1.10;;;14.00;99.90;;;;;;4994652;28;20035;-73
2024/04/05 01:49:58;;;;;;;2.63;1.48;;;14.00;99.90;;;;;;4995327;28;20030;-72
2024/04/05 01:52:25;;;;;;;1.33;0.90;;;13.90;99.90;;;;;;4995039;28;20033;-72
2024/04/05 01:54:52;;;;;;;1.45;0.80;;;13.90;99.90;;;;;;4994755;28;20030;-73
2024/04/05 01:57:18;;;;;;;2.08;1.13;;;13.90;99.90;;;;;;4994753;28;20473;-73
2024/04/05 01:59:49;;;;;;;3.78;1.20;;;13.90;99.90;;;;;;4994748;28;20380;-73
2024/04/05 02:02:16;;;;;;;1.85;1.08;;;13.90;99.90;;;;;;4994905;28;20366;-73
2024/04/05 02:04:43;;;;;;;1.92;1.17;;;13.90;99.90;;;;;;4994670;28;20022;-73
2024/04/05 02:07:09;;;;;;;2.15;1.27;;;13.80;99.90;;;;;;4994759;28;20027;-73
2024/04/05 02:09:36;;;;;;;3.22;1.08;;;13.60;99.90;;;;;;4994407;28;20497;-73
2024/04/05 02:12:03;;;;;;;1.30;0.93;;;13.60;99.90;;;;;;4994603;28;20027;-73
2024/04/05 02:14:30;;;;;;;4.30;1.30;;;13.50;99.90;;;;;;4994694;28;20037;-73
2024/04/05 02:16:57;;;;;;;2.17;1.10;;;13.60;99.90;;;;;;4994909;28;20029;-72
2024/04/05 02:19:23;;;;;;;1.50;0.98;;;13.60;99.90;;;;;;4994665;28;20034;-73
2024/04/05 02:21:50;;;;;;;2.58;1.30;;;13.60;99.90;;;;;;4994352;28;20030;-73
2024/04/05 02:24:16;;;;;;;3.08;1.50;;;13.70;99.90;;;;;;4994811;28;20397;-73
2024/04/05 02:26:43;;;;;;;1.67;1.27;;;13.70;99.90;;;;;;4994336;28;20461;-73
2024/04/05 02:29:09;;;;;;;2.25;1.10;;;13.70;99.90;;;;;;4994102;28;20042;-73
2024/04/05 02:31:35;;;;;;;3.97;1.30;;;13.70;99.90;;;;;;4994592;28;20495;-72
2024/04/05 02:34:03;;;;;;;1.88;1.40;;;13.70;99.90;;;;;;4994548;28;20030;-73
2024/04/05 02:36:30;;;;;;;2.38;1.27;;;13.70;99.90;;;;;;4992505;28;20393;-73
2024/04/05 02:38:56;;;;;;;2.70;1.50;;;13.70;99.90;;;;;;4994378;28;20038;-73
2024/04/05 02:41:22;;;;;;;3.78;1.40;;;13.60;99.90;;;;;;4994215;28;20029;-73
2024/04/05 02:43:49;;;;;;;3.17;1.42;;;13.60;99.90;;;;;;4994382;28;20026;-73
2024/04/05 02:46:15;;;;;;;2.40;1.13;;;13.70;99.90;;;;;;4993777;28;20023;-73
2024/04/05 02:48:41;;;;;;;2.83;1.40;;;13.60;99.90;;;;;;4994592;28;20023;-73
2024/04/05 02:51:08;;;;;;;2.30;1.38;;;13.60;99.90;;;;;;4994233;28;20037;-73
2024/04/05 02:53:34;;;;;;;3.17;1.70;;;13.60;99.90;;;;;;4994234;28;20030;-73
2024/04/05 02:56:01;;;;;;;2.83;1.48;;;13.60;99.90;;;;;;4994199;28;20050;-73
2024/04/05 02:58:27;;;;;;;2.53;1.60;;;13.60;99.90;;;;;;4993503;28;20050;-73
2024/04/05 03:00:56;;;;;;;2.70;1.52;;;13.60;99.90;;;;;;4994454;28;20034;-74
2024/04/05 03:03:22;;;;;;;3.38;1.88;;;13.60;99.90;;;;;;4994206;28;20026;-72
2024/04/05 03:05:49;;;;;;;3.13;2.00;;;13.60;99.90;;;;;;4993646;28;20038;-73
2024/04/05 03:08:16;;;;;;;3.25;2.20;;;13.60;99.90;;;;;;4993752;28;20102;-73
2024/04/05 03:10:42;;;;;;;2.22;1.58;;;13.50;99.90;;;;;;4994096;28;20038;-73
2024/04/05 03:13:08;;;;;;;2.35;1.73;;;13.50;99.90;;;;;;4993951;28;20472;-73
2024/04/05 03:15:35;;;;;;;4.13;1.60;;;13.40;99.90;;;;;;4994014;28;20041;-74
2024/04/05 03:18:02;;;;;;;2.40;1.48;;;13.30;99.90;;;;;;4994056;28;20030;-73
2024/04/05 03:20:29;;;;;;;2.15;1.38;;;13.30;99.90;;;;;;4993856;28;20465;-73
2024/04/05 03:22:55;;;;;;;2.10;1.38;;;13.30;99.90;;;;;;4993606;28;20038;-73
2024/04/05 03:25:22;;;;;;;3.15;1.23;;;13.30;99.90;;;;;;4994256;28;20477;-73
2024/04/05 03:27:48;;;;;;;2.28;1.48;;;13.30;99.90;;;;;;4993465;28;20397;-73
2024/04/05 03:30:15;;;;;;;5.60;1.83;;;13.30;99.90;;;;;;4994143;28;20026;-73
2024/04/05 03:32:42;;;;;;;2.75;1.38;;;13.30;99.90;;;;;;4993586;28;20031;-73
2024/04/05 03:35:09;;;;;;;3.65;1.52;;;13.40;99.90;;;;;;4993683;28;20034;-73
2024/04/05 03:37:38;;;;;;;2.28;1.52;;;13.30;99.90;;;;;;4993722;28;20466;-73
2024/04/05 03:40:05;;;;;;;1.83;1.30;;;13.40;99.90;;;;;;4993557;28;20038;-73
2024/04/05 03:42:31;;;;;;;2.33;1.48;;;13.40;99.90;;;;;;4993779;28;20030;-73
2024/04/05 03:44:57;;;;;;;2.70;1.38;;;13.40;99.90;;;;;;4993887;28;20042;-73
2024/04/05 03:47:23;;;;;;;1.67;1.20;;;13.40;99.90;;;;;;4993774;28;20030;-73
2024/04/05 03:49:50;;;;;;;3.30;1.15;;;13.30;99.90;;;;;;4993176;28;20038;-73
2024/04/05 03:52:16;;;;;;;1.77;1.23;;;13.30;99.90;;;;;;4993591;28;20026;-70
2024/04/05 03:54:43;;;;;;;2.55;1.10;;;13.20;99.90;;;;;;4993765;28;20494;-73
2024/04/05 03:57:09;;;;;;;2.88;1.40;;;13.20;99.90;;;;;;4994340;28;20042;-73
2024/04/05 03:59:35;;;;;;;2.97;1.50;;;13.20;99.90;;;;;;4997292;28;20042;-73
2024/04/05 04:02:01;;;;;;;1.52;1.15;;;13.30;99.90;;;;;;4996836;28;20037;-73
2024/04/05 04:04:28;;;;;;;1.85;1.48;;;13.30;99.90;;;;;;4997233;28;20030;-73
2024/04/05 04:06:54;;;;;;;1.70;1.40;;;13.30;99.90;;;;;;4996495;28;20038;-72
2024/04/05 04:09:20;;;;;;;2.17;1.08;;;13.30;99.90;;;;;;4997076;28;20397;-73
2024/04/05 04:11:47;;;;;;;2.97;1.48;;;13.40;99.90;;;;;;4992900;28;20030;-70
2024/04/05 04:14:14;;;;;;;3.03;1.15;;;13.30;99.90;;;;;;4998219;28;20034;-70
2024/04/05 04:16:41;;;;;;;2.95;1.27;;;13.20;99.90;;;;;;5006031;28;20034;-73
2024/04/05 04:19:08;;;;;;;1.88;1.15;;;13.20;99.90;;;;;;5007660;28;20050;-73
2024/04/05 04:21:35;;;;;;;2.65;1.65;;;13.20;99.90;;;;;;5007933;28;20034;-72
2024/04/05 04:24:01;;;;;;;2.38;1.45;;;13.10;99.90;;;;;;5019490;28;20049;-70
2024/04/05 04:26:28;;;;;;;2.30;1.30;;;13.20;99.90;;;;;;5003363;28;20049;-73
2024/04/05 04:28:54;;;;;;;2.13;1.35;;;13.10;99.90;;;;;;5015681;28;20468;-73
2024/04/05 04:31:22;;;;;;;2.95;1.70;;;13.10;99.90;;;;;;5015448;28;20033;-73
2024/04/05 04:33:49;;;;;;;2.95;1.38;;;13.10;99.90;;;;;;5015766;28;20038;-74
2024/04/05 04:36:16;;;;;;;2.00;1.30;;;13.20;99.90;;;;;;5014861;28;20030;-72
2024/04/05 04:38:42;;;;;;;4.70;1.80;;;13.10;99.90;;;;;;5015549;28;20042;-73
2024/04/05 04:41:08;;;;;;;1.83;1.30;;;13.20;99.90;;;;;;5015301;28;20029;-73
2024/04/05 04:43:35;;;;;;;2.72;1.55;;;13.20;99.90;;;;;;5015442;28;20469;-73
2024/04/05 04:46:01;;;;;;;3.42;1.45;;;13.10;99.90;;;;;;5015373;28;20037;-73
2024/04/05 04:48:27;;;;;;;3.35;1.30;;;13.20;99.90;;;;;;5015338;28;20026;-73
2024/04/05 04:50:54;;;;;;;4.22;1.25;;;13.10;99.90;;;;;;5013035;28;20041;-73
2024/04/05 04:53:20;;;;;;;1.70;1.20;;;13.00;99.90;;;;;;5014998;28;20038;-73
2024/04/05 04:55:47;;;;;;;2.13;1.30;;;13.00;99.90;;;;;;5014992;28;20034;-73
2024/04/05 04:58:17;;;;;;;2.42;1.20;;;13.00;99.90;;;;;;4996340;28;20042;-73
2024/04/05 05:00:46;;;;;;;2.30;1.25;;;13.00;99.90;;;;;;4995577;28;20026;-73
2024/04/05 05:03:13;;;;;;;1.60;1.10;;;13.10;99.90;;;;;;4995290;28;20033;-73
2024/04/05 05:05:40;;;;;;;1.70;1.30;;;13.10;99.90;;;;;;4995013;28;20037;-73
2024/04/05 05:08:13;;;;;;;2.08;1.20;;;13.20;99.90;;;;;;4994574;28;20037;-73
2024/04/05 05:10:41;;;;;;;1.40;1.00;;;13.10;99.90;;;;;;4995432;28;20041;-73
2024/04/05 05:13:10;;;;;;;2.67;1.40;;;13.10;99.90;;;;;;4995022;28;20476;-72
2024/04/05 05:15:36;;;;;;;1.67;1.38;;;13.00;99.90;;;;;;4994971;28;20038;-73
2024/04/05 05:18:04;;;;;;;3.95;1.40;;;13.00;99.90;;;;;;4994761;28;20038;-73
2024/04/05 05:20:30;;;;;;;3.10;1.10;;;13.00;99.90;;;;;;4994516;28;20031;-73
2024/04/05 05:22:57;;;;;;;1.85;1.17;;;13.00;99.90;;;;;;4994996;28;20035;-73
2024/04/05 05:25:24;;;;;;;2.15;0.85;;;13.00;99.90;;;;;;4994891;28;20034;-72
2024/04/05 05:27:50;;;;;;;1.30;1.00;;;13.10;99.90;;;;;;5009872;28;20026;-73
2024/04/05 05:30:16;;;;;;;2.33;1.00;;;13.10;99.90;;;;;;5014634;28;20468;-72
2024/04/05 05:32:43;;;;;;;1.45;0.98;;;13.20;99.90;;;;;;5014438;28;20057;-73
2024/04/05 05:35:09;;;;;;;2.42;0.90;;;13.20;99.90;;;;;;5013952;28;20025;-73
2024/04/05 05:37:35;;;;;;;1.52;0.90;;;13.30;99.90;;;;;;5014316;28;20400;-72
2024/04/05 05:40:02;;;;;;;2.50;1.00;;;13.30;99.90;;;;;;5013825;28;20057;-72
2024/04/05 05:42:28;;;;;;;0.98;0.80;;;13.40;99.90;;;;;;4996852;28;20045;-72
2024/04/05 05:44:55;;;;;;;1.33;0.88;;;13.40;99.90;;;;;;4995307;28;20026;-73
2024/04/05 05:47:21;;;;;;;1.38;0.65;;;13.50;99.90;;;;;;4993229;28;20031;-73
2024/04/05 05:49:53;;;;;;;1.40;0.70;;;13.60;99.90;;;;;;4992864;28;20042;-73
2024/04/05 05:52:20;;;;;;;0.70;0.50;;;13.60;99.90;;;;;;4993288;28;20026;-73
2024/04/05 05:54:46;;;;;;;3.17;0.80;;;13.70;99.90;;;;;;4993160;28;20026;-73
2024/04/05 05:57:12;;;;;;;1.75;0.70;;;13.80;99.90;;;;;;4993225;28;20041;-73
2024/04/05 05:59:39;;;;;;;1.98;0.65;;;13.80;99.90;;;;;;4991918;28;20053;-72
2024/04/05 06:02:05;;;;;;;0.95;0.65;;;13.90;99.90;;;;;;4990805;28;20464;-73
2024/04/05 06:04:32;;;;;;;1.58;0.60;;;14.00;99.90;;;;;;4991978;28;20057;-72
2024/04/05 06:06:59;;;;;;;1.75;0.50;;;14.00;99.90;;;;;;4992040;28;20046;-73
2024/04/05 06:09:25;;;;;;;0.98;0.60;;;14.10;99.90;;;;;;4992753;28;20038;-73
2024/04/05 06:11:52;;;;;;;1.35;0.80;;;14.20;99.90;;;;;;4993263;28;20037;-73
2024/04/05 06:14:18;;;;;;;0.80;0.60;;;14.20;99.90;;;;;;4994088;28;20026;-73
2024/04/05 06:16:44;;;;;;;0.60;0.55;;;14.30;99.90;;;;;;4994561;28;20046;-73
2024/04/05 06:19:11;;;;;;;2.15;0.77;;;14.40;99.90;;;;;;4994411;28;20480;-73
2024/04/05 06:21:38;;;;;;;1.52;0.80;;;14.40;99.90;;;;;;4994311;28;20045;-73
2024/04/05 06:24:04;;;;;;;1.35;0.73;;;14.50;99.90;;;;;;4994414;28;20037;-72
2024/04/05 06:26:32;;;;;;;0.60;0.50;;;14.60;99.90;;;;;;4994780;28;20461;-72
2024/04/05 06:28:58;;;;;;;1.00;0.50;;;14.60;99.90;;;;;;4994441;28;20030;-73
2024/04/05 06:31:24;;;;;;;1.45;0.40;;;14.70;99.90;;;;;;4994191;28;20034;-73
2024/04/05 06:33:50;;;;;;;0.22;0.22;;;14.80;99.90;;;;;;4994162;28;20050;-73
2024/04/05 06:36:16;;;;;;;0.43;0.40;;;14.90;99.90;;;;;;4994520;28;20030;-73
2024/04/05 06:38:43;;;;;;;1.92;0.70;;;14.90;99.90;;;;;;4994598;28;20030;-72
2024/04/05 06:41:09;;;;;;;0.45;0.40;;;15.00;99.90;;;;;;4994425;28;20464;-73
2024/04/05 06:43:35;;;;;;;0.82;0.52;;;15.10;99.90;;;;;;4994510;28;20030;-73
2024/04/05 06:46:07;;;;;;;2.33;0.30;;;15.20;99.90;;;;;;4994451;28;20038;-72
2024/04/05 06:48:35;;;;;;;1.25;0.40;;;15.20;99.90;;;;;;4994276;28;20460;-73
2024/04/05 06:51:11;;;;;;;0.45;0.40;;;15.30;99.90;;;;;;4994819;28;20038;-73
2024/04/05 06:53:38;;;;;;;0.85;0.40;;;15.40;99.90;;;;;;4994270;28;20034;-73
2024/04/05 06:56:11;;;;;;;1.08;0.45;;;15.50;99.90;;;;;;4994311;28;20026;-73
2024/04/05 06:58:38;;;;;;;;;;;15.60;99.90;;;;;;4994739;28;20034;-73
2024/04/05 07:01:05;;;;;;;1.35;0.50;;;15.60;99.90;;;;;;4994294;28;19914;-73
2024/04/05 07:03:31;;;;;;;1.00;0.40;;;15.60;99.90;;;;;;4993854;28;20042;-73
2024/04/05 07:06:03;;;;;;;1.50;0.47;;;15.70;99.90;;;;;;4994052;28;20385;-73
2024/04/05 07:08:30;;;;;;;0.73;0.47;;;15.70;99.90;;;;;;4994058;28;20042;-73
2024/04/05 07:10:57;;;;;;;2.13;0.65;;;15.80;99.90;;;;;;4994179;28;20040;-73
2024/04/05 07:13:25;;;;;;;2.45;0.50;;;15.80;99.90;;;;;;4993936;28;20030;-73
2024/04/05 07:15:52;;;;;;;1.08;0.65;;;15.90;99.90;;;;;;4994041;28;20026;-73
2024/04/05 07:18:22;;;;;;;1.42;0.50;;;16.00;99.90;;;;;;4993957;28;20034;-73
2024/04/05 07:20:48;;;;;;;3.28;0.50;;;16.10;99.90;;;;;;4993384;28;20054;-73
2024/04/05 07:23:14;;;;;;;0.50;0.40;;;16.20;99.90;;;;;;4994318;28;20033;-73
2024/04/05 07:25:40;;;;;;;1.33;0.63;;;16.20;99.90;;;;;;5008527;28;20038;-73
2024/04/05 07:28:07;;;;;;;1.10;0.47;;;16.30;99.90;;;;;;4994053;28;20033;-73
2024/04/05 07:30:35;;;;;;;0.98;0.50;;;16.30;99.90;;;;;;4994383;28;20033;-73
2024/04/05 07:33:01;;;;;;;1.00;0.50;;;16.30;99.90;;;;;;4997527;28;20046;-73
2024/04/05 07:35:28;;;;;;;0.77;0.60;;;16.40;99.90;;;;;;4997513;28;20031;-73
2024/04/05 07:37:55;;;;;;;0.98;0.50;;;16.40;99.90;;;;;;4997750;28;20035;-73
2024/04/05 07:40:22;;;;;;;1.45;0.60;;;16.50;99.90;;;;;;4997456;28;20034;-73
2024/04/05 07:42:53;;;;;;;1.58;0.60;;;16.50;99.90;;;;;;4997598;28;20034;-73
2024/04/05 07:45:21;;;;;;;1.35;0.40;;;16.60;99.90;;;;;;4997596;28;20034;-73
2024/04/05 07:47:48;;;;;;;0.70;0.50;;;16.70;99.90;;;;;;4997534;28;20033;-73
2024/04/05 07:50:17;;;;;;;0.75;0.50;;;16.70;99.90;;;;;;4997637;28;20049;-73
2024/04/05 07:52:43;;;;;;;2.00;0.60;;;16.80;99.90;;;;;;4998087;28;20345;-73
2024/04/05 07:55:10;;;;;;;1.88;0.70;;;16.90;99.90;;;;;;4997153;28;20376;-73
2024/04/05 07:57:44;;;;;;;1.17;0.50;;;16.90;99.90;;;;;;4997196;28;20026;-73
2024/04/05 08:00:14;;;;;;;1.20;0.55;;;16.90;99.90;;;;;;4996373;28;20060;-73
2024/04/05 08:02:50;;;;;;;2.67;0.40;;;17.10;99.90;;;;;;4997895;28;20034;-73
2024/04/05 08:05:17;;;;;;;0.60;0.40;;;17.10;99.90;;;;;;4996867;28;20038;-73
2024/04/05 08:07:44;;;;;;;3.55;0.50;;;17.20;99.90;;;;;;4996865;28;20615;-73
2024/04/05 08:10:10;;;;;;;0.88;0.50;;;17.20;99.90;;;;;;4996663;28;20049;-73
2024/04/05 08:12:37;;;;;;;2.25;0.50;;;17.20;99.90;;;;;;4997521;28;20037;-73
2024/04/05 08:15:04;;;;;;;0.70;0.40;;;17.20;99.90;;;;;;5011349;28;20038;-73
2024/04/05 08:17:30;;;;;;;4.88;0.47;;;17.20;99.90;;;;;;4997196;28;20030;-73
2024/04/05 08:19:57;;;;;;;2.53;0.30;;;17.30;99.90;;;;;;4996579;28;20049;-73
2024/04/05 08:22:23;;;;;;;0.93;0.45;;;17.30;99.90;;;;;;4996526;28;20022;-73
2024/04/05 08:24:49;;;;;;;0.68;0.30;;;17.30;99.90;;;;;;4996882;28;20369;-74
2024/04/05 08:27:15;;;;;;;2.03;0.38;;;17.40;99.90;;;;;;4997167;28;20022;-73
2024/04/05 08:29:41;;;;;;;1.77;0.50;;;17.40;99.90;;;;;;4997017;28;20035;-73
2024/04/05 08:32:08;;;;;;;0.80;0.38;;;17.60;99.90;;;;;;4996802;28;20022;-73
2024/04/05 08:34:34;;;;;;;2.08;0.38;;;17.70;99.90;;;;;;4996593;28;20026;-73
2024/04/05 08:37:03;;;;;;;0.95;0.50;;;17.80;99.90;;;;;;4996573;28;20369;-73
2024/04/05 08:39:29;;;;;;;1.85;0.47;;;17.80;99.90;;;;;;4996229;28;20049;-73
2024/04/05 08:42:12;;;;;;;0.90;0.45;;;17.80;99.90;;;;;;4996522;28;20033;-73
2024/04/05 08:44:42;;;;;;;0.45;0.40;;;17.80;99.90;;;;;;4995943;28;20038;-73
2024/04/05 08:47:09;;;;;;;2.17;0.40;;;17.80;99.90;;;;;;4996477;28;20031;-74
2024/04/05 08:49:35;;;;;;;0.70;0.25;;;17.90;99.90;;;;;;4996842;28;20041;-73
2024/04/05 08:52:03;;;;;;;1.45;0.40;;;18.00;99.90;;;;;;4996251;28;20031;-73
2024/04/05 08:54:33;;;;;;;0.88;0.45;;;18.00;99.90;;;;;;4995964;28;20038;-74
2024/04/05 08:57:00;;;;;;;2.13;0.45;;;18.10;99.90;;;;;;4996227;28;20027;-73
2024/04/05 08:59:32;;;;;;;1.88;0.55;;;18.20;99.90;;;;;;4996066;28;20523;-73
2024/04/05 09:02:00;;;;;;;2.47;0.60;;;18.20;99.90;;;;;;4995911;28;20503;-74
2024/04/05 09:04:30;;;;;;;2.50;0.60;;;18.20;99.90;;;;;;4995897;28;20031;-72
2024/04/05 09:06:56;;;;;;;2.85;0.50;;;18.20;99.90;;;;;;4995856;28;20369;-73
2024/04/05 09:09:29;;;;;;;3.67;0.50;;;18.20;99.90;;;;;;4995754;28;20042;-73
2024/04/05 09:12:03;;;;;;;;;;;18.30;99.90;;;;;;4996240;28;20030;-73
2024/04/05 09:14:36;;;;;;;0.65;0.47;;;18.50;99.90;;;;;;4996004;28;19917;-73
2024/04/05 09:17:23;;;;;;;1.95;0.30;;;18.60;99.90;;;;;;4995718;28;20045;-74
2024/04/05 09:19:49;;;;;;;0.93;0.30;;;18.70;99.90;;;;;;4995896;28;20050;-73
2024/04/05 09:22:19;;;;;;;1.90;0.50;;;18.60;99.90;;;;;;4995409;28;20031;-73
2024/04/05 09:24:46;;;;;;;1.27;0.45;;;18.70;99.90;;;;;;4995200;28;20034;-73
2024/04/05 09:27:18;;;;;;;0.98;0.60;;;18.90;99.90;;;;;;4995606;28;20038;-73
2024/04/05 09:29:47;;;;;;;2.22;0.40;;;18.90;99.90;;;;;;4995793;28;20374;-73
2024/04/05 09:32:19;;;;;;;0.50;0.30;;;18.90;99.90;;;;;;4995521;28;20026;-73
2024/04/05 09:34:46;;;;;;;1.15;0.35;;;19.00;99.90;;;;;;4995330;28;20377;-73
2024/04/05 09:37:14;;;;;;;1.85;0.60;;;19.00;99.90;;;;;;4995396;28;20026;-73
2024/04/05 09:39:41;;;;;;;1.45;0.50;;;19.10;99.90;;;;;;4995813;28;20049;-73
2024/04/05 09:42:10;;;;;;;1.50;0.70;;;19.10;99.90;;;;;;4995293;28;20029;-73
2024/04/05 09:44:40;;;;;;;2.67;0.50;;;19.20;99.90;;;;;;4995071;28;20046;-73
2024/04/05 09:47:06;;;;;;;0.80;0.47;;;19.30;99.90;;;;;;4995348;28;20033;-73
2024/04/05 09:49:33;;;;;;;1.33;0.60;;;19.30;99.50;;;;;;4995000;28;20022;-73
2024/04/05 09:52:04;;;;;;;2.67;0.47;;;19.30;99.90;;;;;;4994711;28;20122;-73
2024/04/05 09:54:33;;;;;;;0.77;0.30;;;19.40;99.90;;;;;;4995501;28;20018;-74
2024/04/05 09:57:00;;;;;;;1.95;0.50;;;19.50;99.90;;;;;;4995119;28;20026;-73
2024/04/05 09:59:31;;;;;;;2.05;0.50;;;19.60;99.90;;;;;;4994939;28;20037;-73
2024/04/05 10:01:57;;;;;;;0.90;0.50;;;19.50;99.50;;;;;;4995199;28;20042;-73
2024/04/05 10:04:24;;;;;;;0.60;0.38;;;19.40;99.10;;;;;;4995131;28;20037;-73
2024/04/05 10:06:51;;;;;;;1.33;0.50;;;19.60;98.70;;;;;;4994671;28;20469;-73
2024/04/05 10:09:22;;;;;;;3.25;0.70;;;19.70;99.60;;;;;;4994517;28;20046;-73
2024/04/05 10:11:52;;;;;;;1.73;0.50;;;19.70;99.10;;;;;;4994852;28;20030;-73
2024/04/05 10:14:26;;;;;;;3.28;0.70;;;20.00;99.10;;;;;;4995481;28;20030;-73
2024/04/05 10:16:52;;;;;;;2.42;0.80;;;20.10;99.10;;;;;;4994737;28;20392;-74
2024/04/05 10:19:28;;;;;;;1.98;0.60;;;20.10;97.30;;;;;;4994431;28;20468;-73
2024/04/05 10:22:03;;;;;;;1.23;0.60;;;20.10;98.20;;;;;;4994855;28;20034;-73
2024/04/05 10:24:30;;;;;;;1.30;0.65;;;20.30;96.90;;;;;;4994928;28;20027;-73
2024/04/05 10:26:58;;;;;;;6.10;0.90;;;20.40;97.10;;;;;;4994579;28;20022;-73
2024/04/05 10:29:25;;;;;;;1.30;0.60;;;20.50;97.80;;;;;;4994541;28;20495;-73
2024/04/05 10:32:03;;;;;;;3.53;0.70;;;20.60;97.80;;;;;;5009053;28;20385;-73
2024/04/05 10:34:33;;;;;;;1.60;0.60;;;20.70;95.70;;;;;;4994754;28;20041;-73
2024/04/05 10:37:03;;;;;;;0.80;0.40;;;20.70;96.50;;;;;;4994365;28;20034;-73
2024/04/05 10:39:29;;;;;;;1.00;0.50;;;20.80;95.60;;;;;;4994490;28;20493;-73
2024/04/05 10:41:56;;;;;;;1.27;0.50;;;20.90;96.60;;;;;;4994249;28;20050;-73
2024/04/05 10:44:23;;;;;;;0.88;0.43;;;21.00;96.00;;;;;;4994295;28;20038;-73
2024/04/05 10:46:49;;;;;;;0.70;0.50;;;21.10;96.40;;;;;;4994165;28;20038;-73
2024/04/05 10:49:16;;;;;;;1.38;0.40;;;21.20;93.80;;;;;;4994193;28;20038;-73
2024/04/05 10:51:43;;;;;;;1.45;0.40;;;21.20;95.30;;;;;;4994297;28;20027;-73
2024/04/05 10:54:11;;;;;;;1.10;0.50;;;21.30;94.80;;;;;;4994396;28;20042;-73
2024/04/05 10:56:43;;;;;;;1.35;0.40;;;21.30;94.70;;;;;;4994072;28;20022;-74
2024/04/05 10:59:10;;;;;;;1.35;0.47;;;21.20;93.50;;;;;;4994143;28;20029;-73
2024/04/05 11:01:37;;;;;;;0.98;0.50;;;21.20;94.50;;;;;;4994034;28;20034;-73
2024/04/05 11:04:10;;;;;;;0.52;0.30;;;21.20;93.90;;;;;;4994089;28;20019;-73
2024/04/05 11:06:37;;;;;;;1.20;0.55;;;21.20;94.00;;;;;;4995362;28;20042;-73
2024/04/05 11:09:06;;;;;;;2.50;0.70;;;21.30;95.20;;;;;;4997767;28;20366;-73
2024/04/05 11:11:35;;;;;;;1.20;0.70;;;21.40;93.80;;;;;;4997184;28;20030;-74
2024/04/05 11:14:03;;;;;;;1.50;0.60;;;21.30;94.00;;;;;;4997384;28;20038;-73
2024/04/05 11:16:36;;;;;;;1.23;0.52;;;21.40;93.30;;;;;;4998042;28;20026;-74
2024/04/05 11:19:02;;;;;;;;;;;21.50;93.90;;;;;;4998395;28;20034;-73
2024/04/05 11:21:29;;;;;;;1.73;0.70;;;21.40;91.90;;;;;;4997769;28;19913;-74
2024/04/05 11:23:56;;;;;;;1.85;0.50;;;21.40;91.10;;;;;;4997816;28;20042;-74
2024/04/05 11:26:30;;;;;;;0.57;0.45;;;21.50;93.80;;;;;;4998334;28;20049;-73
2024/04/05 11:28:57;;;;;;;2.50;0.65;;;21.60;92.80;;;;;;4997924;28;20393;-73
2024/04/05 11:31:28;;;;;;;2.67;0.88;;;21.60;93.00;;;;;;4997516;28;20042;-73
2024/04/05 11:33:55;;;;;;;2.15;0.85;;;21.70;93.50;;;;;;4997714;28;20026;-73
2024/04/05 11:36:21;;;;;;;1.17;0.60;;;21.90;93.30;;;;;;4997453;28;20061;-73
2024/04/05 11:38:51;;;;;;;1.40;0.55;;;22.00;93.10;;;;;;4997634;28;20031;-73
2024/04/05 11:41:18;;;;;;;0.82;0.50;;;22.10;92.60;;;;;;4997845;28;20034;-73
2024/04/05 11:43:45;;;;;;;5.25;0.75;;;22.20;92.00;;;;;;4996115;28;20029;-73
2024/04/05 11:46:11;;;;;;;2.05;0.70;;;22.10;90.80;;;;;;4993799;28;20038;-73
2024/04/05 11:48:38;;;;;;;2.13;0.70;;;22.00;91.50;;;;;;4996288;28;20022;-73
2024/04/05 11:51:05;;;;;;;0.77;0.40;;;22.10;92.00;;;;;;4996796;28;20384;-73
2024/04/05 11:53:33;;;;;;;1.55;0.70;;;22.10;91.40;;;;;;4997002;28;20023;-73
2024/04/05 11:55:59;;;;;;;0.75;0.50;;;22.20;91.30;;;;;;4996678;28;20404;-73
2024/04/05 11:58:25;;;;;;;4.00;0.60;;;22.40;91.50;;;;;;4996744;28;20045;-73
2024/04/05 12:00:51;;;;;;;1.30;0.70;;;22.50;89.70;;;;;;4995291;28;20499;-73
2024/04/05 12:03:18;;;;;;;3.53;0.70;;;22.50;90.50;;;;;;4994879;28;20030;-73
2024/04/05 12:05:45;;;;;;;1.25;0.70;;;22.50;90.60;;;;;;4995001;28;20037;-73
2024/04/05 12:08:12;;;;;;;2.97;0.77;;;22.70;91.20;;;;;;4995717;28;21021;-73
2024/04/05 12:10:40;;;;;;;1.23;0.50;;;22.80;90.60;;;;;;4995780;28;20042;-73
2024/04/05 12:13:06;;;;;;;1.75;0.73;;;22.90;91.30;;;;;;4996231;28;20098;-73
2024/04/05 12:15:37;;;;;;;1.55;0.70;;;23.00;90.50;;;;;;4996404;28;20512;-73
2024/04/05 12:18:06;;;;;;;1.13;0.70;;;22.90;89.50;;;;;;4994968;28;20061;-73
2024/04/05 12:20:33;;;;;;;1.63;0.70;;;22.70;87.40;;;;;;4996384;28;20481;-73
2024/04/05 12:22:59;;;;;;;1.17;0.65;;;22.80;86.60;;;;;;4997040;28;20457;-73
2024/04/05 12:25:25;;;;;;;1.60;0.65;;;22.60;87.00;;;;;;4996977;28;20038;-73
2024/04/05 12:27:53;;;;;;;0.85;0.60;;;22.60;88.40;;;;;;4996652;28;20045;-74
2024/04/05 12:30:19;;;;;;;2.80;0.77;;;22.60;86.70;;;;;;4996746;28;20027;-73
2024/04/05 12:32:46;;;;;;;2.05;0.75;;;22.60;87.40;;;;;;4996447;28;20037;-73
2024/04/05 12:35:12;;;;;;;1.42;0.82;;;22.50;85.50;;;;;;4995088;28;20029;-73
2024/04/05 12:37:38;;;;;;;4.10;0.75;;;22.40;87.80;;;;;;4994138;28;20038;-73
2024/04/05 12:40:17;;;;;;;2.25;0.50;;;22.50;86.40;;;;;;4994886;28;20026;-73
2024/04/05 12:42:44;;;;;;;1.30;0.70;;;22.60;86.10;;;;;;4995380;28;20038;-73
2024/04/05 12:45:12;;;;;;;0.90;0.60;;;22.70;86.50;;;;;;4995684;28;20029;-73
2024/04/05 12:47:39;;;;;;;1.48;0.77;;;22.80;89.10;;;;;;5026617;28;20042;-73
2024/04/05 12:50:07;;;;;;;1.77;0.98;;;23.10;88.00;;;;;;4995855;28;20026;-73